sensor_id;sensor_type;location;lat;lon;timestamp;P1;durP1;ratioP1;P2;durP2;ratioP2
73919;SDS011;62266;53.348;-1.496;2023-08-06T00:02:12;3.13;;;1.90;;
73919;SDS011;62266;53.348;-1.496;2023-08-06T00:04:56;5.63;;;2.10;;
73919;SDS011;62266;53.348;-1.496;2023-08-06T00:07:40;6.60;;;2.35;;
73919;SDS011;62266;53.348;-1.496;2023-08-06T00:10:24;4.22;;;2.35;;
73919;SDS011;62266;53.348;-1.496;2023-08-06T00:13:08;4.32;;;2.13;;
73919;SDS011;62266;53.348;-1.496;2023-08-06T00:15:53;4.13;;;2.20;;
73919;SDS011;62266;53.348;-1.496;2023-08-06T00:18:37;3.90;;;2.03;;
73919;SDS011;62266;53.348;-1.496;2023-08-06T00:21:21;3.83;;;2.05;;
73919;SDS011;62266;53.348;-1.496;2023-08-06T00:24:05;3.60;;;2.08;;
73919;SDS011;62266;53.348;-1.496;2023-08-06T00:26:50;3.95;;;1.92;;
73919;SDS011;62266;53.348;-1.496;2023-08-06T00:29:34;3.70;;;1.90;;
73919;SDS011;62266;53.348;-1.496;2023-08-06T00:32:19;2.80;;;1.95;;
73919;SDS011;62266;53.348;-1.496;2023-08-06T00:35:05;4.95;;;2.03;;
73919;SDS011;62266;53.348;-1.496;2023-08-06T00:38:00;5.65;;;2.50;;
73919;SDS011;62266;53.348;-1.496;2023-08-06T00:40:44;4.63;;;2.45;;
73919;SDS011;62266;53.348;-1.496;2023-08-06T00:43:28;2.37;;;1.87;;
73919;SDS011;62266;53.348;-1.496;2023-08-06T00:46:12;3.33;;;2.03;;
73919;SDS011;62266;53.348;-1.496;2023-08-06T00:48:57;3.90;;;1.98;;
73919;SDS011;62266;53.348;-1.496;2023-08-06T00:51:41;4.53;;;2.10;;
73919;SDS011;62266;53.348;-1.496;2023-08-06T00:54:26;4.07;;;1.90;;
73919;SDS011;62266;53.348;-1.496;2023-08-06T00:57:11;4.37;;;2.13;;
73919;SDS011;62266;53.348;-1.496;2023-08-06T00:59:55;5.18;;;2.25;;
73919;SDS011;62266;53.348;-1.496;2023-08-06T01:02:39;3.15;;;1.95;;
73919;SDS011;62266;53.348;-1.496;2023-08-06T01:05:24;3.00;;;1.92;;
73919;SDS011;62266;53.348;-1.496;2023-08-06T01:08:20;4.78;;;2.30;;
73919;SDS011;62266;53.348;-1.496;2023-08-06T01:11:12;4.00;;;2.10;;
73919;SDS011;62266;53.348;-1.496;2023-08-06T01:14:15;4.72;;;2.03;;
73919;SDS011;62266;53.348;-1.496;2023-08-06T01:17:04;3.88;;;2.20;;
73919;SDS011;62266;53.348;-1.496;2023-08-06T01:19:48;6.05;;;1.85;;
73919;SDS011;62266;53.348;-1.496;2023-08-06T01:22:32;3.85;;;2.25;;
73919;SDS011;62266;53.348;-1.496;2023-08-06T01:25:16;3.90;;;2.10;;
73919;SDS011;62266;53.348;-1.496;2023-08-06T01:28:05;3.70;;;2.25;;
73919;SDS011;62266;53.348;-1.496;2023-08-06T01:30:55;3.05;;;2.22;;
73919;SDS011;62266;53.348;-1.496;2023-08-06T01:33:40;3.55;;;2.30;;
73919;SDS011;62266;53.348;-1.496;2023-08-06T01:36:27;4.18;;;1.98;;
73919;SDS011;62266;53.348;-1.496;2023-08-06T01:39:12;4.27;;;2.40;;
73919;SDS011;62266;53.348;-1.496;2023-08-06T01:41:56;5.00;;;2.40;;
73919;SDS011;62266;53.348;-1.496;2023-08-06T01:44:40;5.45;;;2.20;;
73919;SDS011;62266;53.348;-1.496;2023-08-06T01:47:24;4.20;;;2.22;;
73919;SDS011;62266;53.348;-1.496;2023-08-06T01:50:08;5.47;;;2.30;;
73919;SDS011;62266;53.348;-1.496;2023-08-06T01:52:53;3.63;;;2.50;;
73919;SDS011;62266;53.348;-1.496;2023-08-06T01:55:37;3.38;;;1.80;;
73919;SDS011;62266;53.348;-1.496;2023-08-06T01:58:21;3.03;;;1.83;;
73919;SDS011;62266;53.348;-1.496;2023-08-06T02:01:05;5.32;;;2.17;;
73919;SDS011;62266;53.348;-1.496;2023-08-06T02:03:48;5.07;;;2.17;;
73919;SDS011;62266;53.348;-1.496;2023-08-06T02:06:32;4.00;;;1.70;;
73919;SDS011;62266;53.348;-1.496;2023-08-06T02:09:17;4.38;;;2.03;;
73919;SDS011;62266;53.348;-1.496;2023-08-06T02:12:01;5.13;;;2.03;;
73919;SDS011;62266;53.348;-1.496;2023-08-06T02:14:46;5.90;;;2.30;;
73919;SDS011;62266;53.348;-1.496;2023-08-06T02:17:30;4.32;;;1.85;;
73919;SDS011;62266;53.348;-1.496;2023-08-06T02:20:14;3.07;;;1.87;;
73919;SDS011;62266;53.348;-1.496;2023-08-06T02:22:58;3.25;;;1.80;;
73919;SDS011;62266;53.348;-1.496;2023-08-06T02:25:42;4.35;;;2.10;;
73919;SDS011;62266;53.348;-1.496;2023-08-06T02:28:26;3.95;;;2.10;;
73919;SDS011;62266;53.348;-1.496;2023-08-06T02:31:10;3.78;;;2.00;;
73919;SDS011;62266;53.348;-1.496;2023-08-06T02:33:54;5.37;;;2.53;;
73919;SDS011;62266;53.348;-1.496;2023-08-06T02:36:38;4.40;;;1.88;;
73919;SDS011;62266;53.348;-1.496;2023-08-06T02:39:22;3.45;;;2.05;;
73919;SDS011;62266;53.348;-1.496;2023-08-06T02:42:07;3.70;;;1.98;;
73919;SDS011;62266;53.348;-1.496;2023-08-06T02:44:51;6.53;;;2.42;;
73919;SDS011;62266;53.348;-1.496;2023-08-06T02:47:35;3.90;;;2.13;;
73919;SDS011;62266;53.348;-1.496;2023-08-06T02:50:19;3.20;;;2.00;;
73919;SDS011;62266;53.348;-1.496;2023-08-06T02:53:03;4.10;;;2.50;;
73919;SDS011;62266;53.348;-1.496;2023-08-06T02:55:47;5.72;;;2.30;;
73919;SDS011;62266;53.348;-1.496;2023-08-06T02:58:32;4.30;;;2.10;;
73919;SDS011;62266;53.348;-1.496;2023-08-06T03:01:15;3.93;;;2.13;;
73919;SDS011;62266;53.348;-1.496;2023-08-06T03:04:00;4.93;;;1.90;;
73919;SDS011;62266;53.348;-1.496;2023-08-06T03:06:44;4.35;;;2.15;;
73919;SDS011;62266;53.348;-1.496;2023-08-06T03:09:28;5.63;;;1.80;;
73919;SDS011;62266;53.348;-1.496;2023-08-06T03:12:12;4.20;;;2.03;;
73919;SDS011;62266;53.348;-1.496;2023-08-06T03:14:56;3.60;;;2.00;;
73919;SDS011;62266;53.348;-1.496;2023-08-06T03:17:40;6.18;;;2.20;;
73919;SDS011;62266;53.348;-1.496;2023-08-06T03:20:24;4.38;;;2.42;;
73919;SDS011;62266;53.348;-1.496;2023-08-06T03:23:09;4.15;;;2.00;;
73919;SDS011;62266;53.348;-1.496;2023-08-06T03:25:53;3.90;;;1.80;;
73919;SDS011;62266;53.348;-1.496;2023-08-06T03:28:37;5.83;;;2.80;;
73919;SDS011;62266;53.348;-1.496;2023-08-06T03:31:21;5.47;;;1.95;;
73919;SDS011;62266;53.348;-1.496;2023-08-06T03:34:05;4.65;;;1.90;;
73919;SDS011;62266;53.348;-1.496;2023-08-06T03:36:50;4.60;;;2.00;;
73919;SDS011;62266;53.348;-1.496;2023-08-06T03:39:34;4.57;;;1.80;;
73919;SDS011;62266;53.348;-1.496;2023-08-06T03:42:18;3.13;;;2.03;;
73919;SDS011;62266;53.348;-1.496;2023-08-06T03:45:02;4.18;;;1.65;;
73919;SDS011;62266;53.348;-1.496;2023-08-06T03:47:46;4.00;;;1.80;;
73919;SDS011;62266;53.348;-1.496;2023-08-06T03:50:30;3.30;;;2.00;;
73919;SDS011;62266;53.348;-1.496;2023-08-06T03:53:14;3.85;;;1.80;;
73919;SDS011;62266;53.348;-1.496;2023-08-06T03:55:58;3.63;;;2.10;;
73919;SDS011;62266;53.348;-1.496;2023-08-06T03:58:44;3.78;;;1.80;;
73919;SDS011;62266;53.348;-1.496;2023-08-06T04:01:28;3.63;;;1.90;;
73919;SDS011;62266;53.348;-1.496;2023-08-06T04:04:12;4.15;;;1.63;;
73919;SDS011;62266;53.348;-1.496;2023-08-06T04:06:56;2.85;;;1.65;;
73919;SDS011;62266;53.348;-1.496;2023-08-06T04:09:58;2.83;;;1.80;;
73919;SDS011;62266;53.348;-1.496;2023-08-06T04:12:43;6.10;;;2.10;;
73919;SDS011;62266;53.348;-1.496;2023-08-06T04:15:27;2.80;;;1.70;;
73919;SDS011;62266;53.348;-1.496;2023-08-06T04:18:11;5.90;;;2.05;;
73919;SDS011;62266;53.348;-1.496;2023-08-06T04:20:55;2.55;;;1.80;;
73919;SDS011;62266;53.348;-1.496;2023-08-06T04:23:40;3.97;;;1.83;;
73919;SDS011;62266;53.348;-1.496;2023-08-06T04:26:24;3.53;;;2.00;;
73919;SDS011;62266;53.348;-1.496;2023-08-06T04:29:08;3.38;;;1.70;;
73919;SDS011;62266;53.348;-1.496;2023-08-06T04:31:52;3.92;;;1.80;;
73919;SDS011;62266;53.348;-1.496;2023-08-06T04:34:36;5.63;;;1.98;;
73919;SDS011;62266;53.348;-1.496;2023-08-06T04:37:21;5.70;;;2.50;;
73919;SDS011;62266;53.348;-1.496;2023-08-06T04:40:05;3.58;;;2.22;;
73919;SDS011;62266;53.348;-1.496;2023-08-06T04:42:49;3.38;;;2.00;;
73919;SDS011;62266;53.348;-1.496;2023-08-06T04:45:33;3.47;;;1.88;;
73919;SDS011;62266;53.348;-1.496;2023-08-06T04:48:17;3.03;;;1.90;;
73919;SDS011;62266;53.348;-1.496;2023-08-06T04:51:01;5.30;;;1.87;;
73919;SDS011;62266;53.348;-1.496;2023-08-06T04:53:45;4.35;;;1.75;;
73919;SDS011;62266;53.348;-1.496;2023-08-06T04:56:29;3.15;;;1.85;;
73919;SDS011;62266;53.348;-1.496;2023-08-06T04:59:14;2.63;;;1.73;;
73919;SDS011;62266;53.348;-1.496;2023-08-06T05:01:58;2.53;;;1.67;;
73919;SDS011;62266;53.348;-1.496;2023-08-06T05:04:42;2.23;;;1.60;;
73919;SDS011;62266;53.348;-1.496;2023-08-06T05:07:26;3.83;;;1.88;;
73919;SDS011;62266;53.348;-1.496;2023-08-06T05:10:10;3.60;;;1.80;;
73919;SDS011;62266;53.348;-1.496;2023-08-06T05:12:54;3.25;;;1.75;;
73919;SDS011;62266;53.348;-1.496;2023-08-06T05:15:38;3.20;;;1.80;;
73919;SDS011;62266;53.348;-1.496;2023-08-06T05:18:25;3.00;;;1.87;;
73919;SDS011;62266;53.348;-1.496;2023-08-06T05:21:09;3.60;;;1.73;;
73919;SDS011;62266;53.348;-1.496;2023-08-06T05:23:54;2.80;;;1.80;;
73919;SDS011;62266;53.348;-1.496;2023-08-06T05:26:38;4.05;;;1.55;;
73919;SDS011;62266;53.348;-1.496;2023-08-06T05:29:22;3.13;;;1.77;;
73919;SDS011;62266;53.348;-1.496;2023-08-06T05:32:06;2.77;;;1.70;;
73919;SDS011;62266;53.348;-1.496;2023-08-06T05:34:50;4.05;;;1.70;;
73919;SDS011;62266;53.348;-1.496;2023-08-06T05:37:35;2.80;;;1.88;;
73919;SDS011;62266;53.348;-1.496;2023-08-06T05:40:19;4.70;;;1.95;;
73919;SDS011;62266;53.348;-1.496;2023-08-06T05:43:03;2.85;;;1.50;;
73919;SDS011;62266;53.348;-1.496;2023-08-06T05:45:49;2.83;;;1.60;;
73919;SDS011;62266;53.348;-1.496;2023-08-06T05:48:33;7.32;;;1.80;;
73919;SDS011;62266;53.348;-1.496;2023-08-06T05:51:17;4.15;;;1.75;;
73919;SDS011;62266;53.348;-1.496;2023-08-06T05:54:01;3.22;;;1.70;;
73919;SDS011;62266;53.348;-1.496;2023-08-06T05:56:49;2.83;;;1.40;;
73919;SDS011;62266;53.348;-1.496;2023-08-06T05:59:33;3.80;;;1.73;;
73919;SDS011;62266;53.348;-1.496;2023-08-06T06:02:17;4.28;;;2.13;;
73919;SDS011;62266;53.348;-1.496;2023-08-06T06:05:02;2.83;;;1.60;;
73919;SDS011;62266;53.348;-1.496;2023-08-06T06:07:46;2.50;;;1.40;;
73919;SDS011;62266;53.348;-1.496;2023-08-06T06:10:30;3.38;;;2.00;;
73919;SDS011;62266;53.348;-1.496;2023-08-06T06:13:14;3.10;;;1.80;;
73919;SDS011;62266;53.348;-1.496;2023-08-06T06:15:58;3.17;;;1.50;;
73919;SDS011;62266;53.348;-1.496;2023-08-06T06:18:42;2.75;;;1.50;;
73919;SDS011;62266;53.348;-1.496;2023-08-06T06:21:26;3.00;;;1.50;;
73919;SDS011;62266;53.348;-1.496;2023-08-06T06:24:10;2.45;;;1.55;;
73919;SDS011;62266;53.348;-1.496;2023-08-06T06:26:54;3.37;;;1.67;;
73919;SDS011;62266;53.348;-1.496;2023-08-06T06:29:38;4.05;;;1.85;;
73919;SDS011;62266;53.348;-1.496;2023-08-06T06:32:23;2.08;;;1.48;;
73919;SDS011;62266;53.348;-1.496;2023-08-06T06:35:07;4.70;;;1.52;;
73919;SDS011;62266;53.348;-1.496;2023-08-06T06:37:52;3.80;;;1.60;;
73919;SDS011;62266;53.348;-1.496;2023-08-06T06:40:38;2.70;;;1.70;;
73919;SDS011;62266;53.348;-1.496;2023-08-06T06:43:23;3.03;;;1.58;;
73919;SDS011;62266;53.348;-1.496;2023-08-06T06:46:07;3.17;;;1.50;;
73919;SDS011;62266;53.348;-1.496;2023-08-06T06:48:52;3.50;;;2.25;;
73919;SDS011;62266;53.348;-1.496;2023-08-06T06:51:36;3.03;;;1.35;;
73919;SDS011;62266;53.348;-1.496;2023-08-06T06:54:21;2.77;;;1.60;;
73919;SDS011;62266;53.348;-1.496;2023-08-06T06:57:05;3.45;;;1.90;;
73919;SDS011;62266;53.348;-1.496;2023-08-06T06:59:50;2.70;;;1.48;;
73919;SDS011;62266;53.348;-1.496;2023-08-06T07:02:34;3.03;;;1.60;;
73919;SDS011;62266;53.348;-1.496;2023-08-06T07:05:22;2.40;;;1.30;;
73919;SDS011;62266;53.348;-1.496;2023-08-06T07:08:06;3.10;;;1.47;;
73919;SDS011;62266;53.348;-1.496;2023-08-06T07:10:51;3.92;;;1.50;;
73919;SDS011;62266;53.348;-1.496;2023-08-06T07:13:44;3.42;;;1.40;;
73919;SDS011;62266;53.348;-1.496;2023-08-06T07:16:28;2.13;;;1.50;;
73919;SDS011;62266;53.348;-1.496;2023-08-06T07:19:13;3.25;;;1.40;;
73919;SDS011;62266;53.348;-1.496;2023-08-06T07:21:57;2.30;;;1.20;;
73919;SDS011;62266;53.348;-1.496;2023-08-06T07:24:41;1.80;;;1.20;;
73919;SDS011;62266;53.348;-1.496;2023-08-06T07:27:25;3.05;;;1.50;;
73919;SDS011;62266;53.348;-1.496;2023-08-06T07:30:09;2.60;;;1.35;;
73919;SDS011;62266;53.348;-1.496;2023-08-06T07:32:55;3.03;;;1.50;;
73919;SDS011;62266;53.348;-1.496;2023-08-06T07:35:39;5.10;;;1.97;;
73919;SDS011;62266;53.348;-1.496;2023-08-06T07:38:24;2.53;;;1.10;;
73919;SDS011;62266;53.348;-1.496;2023-08-06T07:41:08;2.35;;;1.42;;
73919;SDS011;62266;53.348;-1.496;2023-08-06T07:43:52;3.22;;;1.48;;
73919;SDS011;62266;53.348;-1.496;2023-08-06T07:46:36;2.78;;;1.77;;
73919;SDS011;62266;53.348;-1.496;2023-08-06T07:49:22;2.47;;;1.37;;
73919;SDS011;62266;53.348;-1.496;2023-08-06T07:52:07;3.47;;;1.50;;
73919;SDS011;62266;53.348;-1.496;2023-08-06T07:54:51;7.90;;;1.42;;
73919;SDS011;62266;53.348;-1.496;2023-08-06T07:57:36;2.35;;;1.50;;
73919;SDS011;62266;53.348;-1.496;2023-08-06T08:00:21;3.17;;;1.27;;
73919;SDS011;62266;53.348;-1.496;2023-08-06T08:03:06;4.00;;;1.30;;
73919;SDS011;62266;53.348;-1.496;2023-08-06T08:05:50;2.60;;;1.58;;
73919;SDS011;62266;53.348;-1.496;2023-08-06T08:08:40;4.40;;;1.35;;
73919;SDS011;62266;53.348;-1.496;2023-08-06T08:11:25;2.30;;;1.30;;
73919;SDS011;62266;53.348;-1.496;2023-08-06T08:14:10;2.33;;;1.20;;
73919;SDS011;62266;53.348;-1.496;2023-08-06T08:16:54;3.40;;;1.33;;
73919;SDS011;62266;53.348;-1.496;2023-08-06T08:19:39;2.88;;;1.42;;
73919;SDS011;62266;53.348;-1.496;2023-08-06T08:22:24;1.83;;;1.02;;
73919;SDS011;62266;53.348;-1.496;2023-08-06T08:25:10;2.83;;;1.23;;
73919;SDS011;62266;53.348;-1.496;2023-08-06T08:28:02;2.83;;;1.42;;
73919;SDS011;62266;53.348;-1.496;2023-08-06T08:30:46;2.70;;;1.37;;
73919;SDS011;62266;53.348;-1.496;2023-08-06T08:33:31;3.28;;;1.15;;
73919;SDS011;62266;53.348;-1.496;2023-08-06T08:36:15;3.17;;;1.73;;
73919;SDS011;62266;53.348;-1.496;2023-08-06T08:39:00;1.73;;;1.33;;
73919;SDS011;62266;53.348;-1.496;2023-08-06T08:41:44;2.70;;;1.50;;
73919;SDS011;62266;53.348;-1.496;2023-08-06T08:44:29;2.43;;;1.23;;
73919;SDS011;62266;53.348;-1.496;2023-08-06T08:47:15;1.58;;;1.27;;
73919;SDS011;62266;53.348;-1.496;2023-08-06T08:50:00;3.08;;;1.17;;
73919;SDS011;62266;53.348;-1.496;2023-08-06T08:52:50;1.60;;;1.13;;
73919;SDS011;62266;53.348;-1.496;2023-08-06T08:55:34;4.05;;;1.48;;
73919;SDS011;62266;53.348;-1.496;2023-08-06T08:58:22;3.20;;;1.67;;
73919;SDS011;62266;53.348;-1.496;2023-08-06T09:01:07;2.70;;;1.40;;
73919;SDS011;62266;53.348;-1.496;2023-08-06T09:03:51;4.60;;;1.35;;
73919;SDS011;62266;53.348;-1.496;2023-08-06T09:06:36;2.42;;;1.33;;
73919;SDS011;62266;53.348;-1.496;2023-08-06T09:09:30;3.42;;;1.27;;
73919;SDS011;62266;53.348;-1.496;2023-08-06T09:12:18;2.47;;;1.40;;
73919;SDS011;62266;53.348;-1.496;2023-08-06T09:15:03;1.80;;;1.17;;
73919;SDS011;62266;53.348;-1.496;2023-08-06T09:17:47;2.35;;;1.20;;
73919;SDS011;62266;53.348;-1.496;2023-08-06T09:20:31;3.08;;;1.50;;
73919;SDS011;62266;53.348;-1.496;2023-08-06T09:23:18;3.08;;;1.70;;
73919;SDS011;62266;53.348;-1.496;2023-08-06T09:26:04;2.73;;;1.47;;
73919;SDS011;62266;53.348;-1.496;2023-08-06T09:28:48;3.20;;;1.45;;
73919;SDS011;62266;53.348;-1.496;2023-08-06T09:31:54;2.00;;;1.40;;
73919;SDS011;62266;53.348;-1.496;2023-08-06T09:34:43;1.83;;;1.20;;
73919;SDS011;62266;53.348;-1.496;2023-08-06T09:37:35;2.90;;;1.27;;
73919;SDS011;62266;53.348;-1.496;2023-08-06T09:40:24;2.97;;;1.40;;
73919;SDS011;62266;53.348;-1.496;2023-08-06T09:43:11;1.98;;;1.30;;
73919;SDS011;62266;53.348;-1.496;2023-08-06T09:45:56;4.20;;;1.48;;
73919;SDS011;62266;53.348;-1.496;2023-08-06T09:48:40;2.70;;;1.50;;
73919;SDS011;62266;53.348;-1.496;2023-08-06T09:51:25;3.65;;;1.10;;
73919;SDS011;62266;53.348;-1.496;2023-08-06T09:54:09;3.17;;;1.30;;
73919;SDS011;62266;53.348;-1.496;2023-08-06T09:56:57;3.80;;;1.40;;
73919;SDS011;62266;53.348;-1.496;2023-08-06T09:59:41;2.53;;;1.70;;
73919;SDS011;62266;53.348;-1.496;2023-08-06T10:02:26;1.92;;;1.30;;
73919;SDS011;62266;53.348;-1.496;2023-08-06T10:05:11;1.65;;;1.20;;
73919;SDS011;62266;53.348;-1.496;2023-08-06T10:07:55;1.60;;;1.20;;
73919;SDS011;62266;53.348;-1.496;2023-08-06T10:10:40;1.75;;;1.20;;
73919;SDS011;62266;53.348;-1.496;2023-08-06T10:13:25;2.22;;;1.15;;
73919;SDS011;62266;53.348;-1.496;2023-08-06T10:16:12;2.58;;;1.45;;
73919;SDS011;62266;53.348;-1.496;2023-08-06T10:19:03;2.88;;;1.33;;
73919;SDS011;62266;53.348;-1.496;2023-08-06T10:25:16;2.40;;;1.20;;
73919;SDS011;62266;53.348;-1.496;2023-08-06T10:28:00;3.35;;;1.35;;
73919;SDS011;62266;53.348;-1.496;2023-08-06T10:30:51;3.28;;;1.35;;
73919;SDS011;62266;53.348;-1.496;2023-08-06T10:33:42;2.08;;;0.90;;
73919;SDS011;62266;53.348;-1.496;2023-08-06T10:36:41;2.10;;;1.03;;
73919;SDS011;62266;53.348;-1.496;2023-08-06T10:39:26;2.40;;;1.27;;
73919;SDS011;62266;53.348;-1.496;2023-08-06T10:42:19;1.80;;;1.35;;
73919;SDS011;62266;53.348;-1.496;2023-08-06T10:45:17;1.88;;;1.10;;
73919;SDS011;62266;53.348;-1.496;2023-08-06T10:48:02;2.85;;;1.10;;
73919;SDS011;62266;53.348;-1.496;2023-08-06T10:50:48;2.00;;;1.20;;
73919;SDS011;62266;53.348;-1.496;2023-08-06T10:53:42;2.00;;;1.10;;
73919;SDS011;62266;53.348;-1.496;2023-08-06T10:56:28;2.72;;;1.40;;
73919;SDS011;62266;53.348;-1.496;2023-08-06T10:59:14;2.45;;;1.30;;
73919;SDS011;62266;53.348;-1.496;2023-08-06T11:01:59;3.72;;;1.27;;
73919;SDS011;62266;53.348;-1.496;2023-08-06T11:04:45;3.47;;;1.53;;
73919;SDS011;62266;53.348;-1.496;2023-08-06T11:07:29;1.45;;;1.10;;
73919;SDS011;62266;53.348;-1.496;2023-08-06T11:10:14;1.67;;;1.00;;
73919;SDS011;62266;53.348;-1.496;2023-08-06T11:13:05;1.27;;;0.80;;
73919;SDS011;62266;53.348;-1.496;2023-08-06T11:15:59;1.20;;;0.70;;
73919;SDS011;62266;53.348;-1.496;2023-08-06T11:18:46;1.80;;;0.80;;
73919;SDS011;62266;53.348;-1.496;2023-08-06T11:21:31;1.70;;;0.90;;
73919;SDS011;62266;53.348;-1.496;2023-08-06T11:24:15;1.63;;;1.13;;
73919;SDS011;62266;53.348;-1.496;2023-08-06T11:27:00;1.45;;;0.90;;
73919;SDS011;62266;53.348;-1.496;2023-08-06T11:29:51;1.23;;;0.75;;
73919;SDS011;62266;53.348;-1.496;2023-08-06T11:32:46;1.37;;;0.93;;
73919;SDS011;62266;53.348;-1.496;2023-08-06T11:35:33;1.30;;;0.80;;
73919;SDS011;62266;53.348;-1.496;2023-08-06T11:38:18;1.50;;;0.85;;
73919;SDS011;62266;53.348;-1.496;2023-08-06T11:41:03;3.05;;;1.90;;
73919;SDS011;62266;53.348;-1.496;2023-08-06T11:43:47;1.40;;;1.00;;
73919;SDS011;62266;53.348;-1.496;2023-08-06T11:46:51;1.30;;;0.90;;
73919;SDS011;62266;53.348;-1.496;2023-08-06T11:49:49;1.35;;;0.75;;
73919;SDS011;62266;53.348;-1.496;2023-08-06T11:52:33;1.50;;;0.77;;
73919;SDS011;62266;53.348;-1.496;2023-08-06T11:55:18;1.55;;;0.95;;
73919;SDS011;62266;53.348;-1.496;2023-08-06T11:58:10;1.55;;;0.68;;
73919;SDS011;62266;53.348;-1.496;2023-08-06T12:00:58;1.57;;;0.80;;
73919;SDS011;62266;53.348;-1.496;2023-08-06T12:03:43;1.10;;;0.73;;
73919;SDS011;62266;53.348;-1.496;2023-08-06T12:06:27;1.52;;;0.80;;
73919;SDS011;62266;53.348;-1.496;2023-08-06T12:09:12;1.65;;;0.80;;
73919;SDS011;62266;53.348;-1.496;2023-08-06T12:11:56;1.30;;;0.60;;
73919;SDS011;62266;53.348;-1.496;2023-08-06T12:14:40;1.63;;;0.60;;
73919;SDS011;62266;53.348;-1.496;2023-08-06T12:17:25;1.70;;;0.70;;
73919;SDS011;62266;53.348;-1.496;2023-08-06T12:20:10;1.08;;;0.63;;
73919;SDS011;62266;53.348;-1.496;2023-08-06T12:22:55;1.90;;;0.70;;
73919;SDS011;62266;53.348;-1.496;2023-08-06T12:25:39;1.80;;;0.90;;
73919;SDS011;62266;53.348;-1.496;2023-08-06T12:28:23;1.23;;;0.77;;
73919;SDS011;62266;53.348;-1.496;2023-08-06T12:31:08;1.17;;;0.73;;
73919;SDS011;62266;53.348;-1.496;2023-08-06T12:37:26;1.30;;;0.70;;
73919;SDS011;62266;53.348;-1.496;2023-08-06T12:40:10;1.25;;;0.88;;
73919;SDS011;62266;53.348;-1.496;2023-08-06T12:42:54;1.57;;;0.80;;
73919;SDS011;62266;53.348;-1.496;2023-08-06T12:45:39;1.60;;;0.68;;
73919;SDS011;62266;53.348;-1.496;2023-08-06T12:48:23;1.70;;;1.10;;
73919;SDS011;62266;53.348;-1.496;2023-08-06T12:51:08;1.48;;;0.95;;
73919;SDS011;62266;53.348;-1.496;2023-08-06T12:53:52;0.73;;;0.50;;
73919;SDS011;62266;53.348;-1.496;2023-08-06T12:56:36;1.90;;;0.90;;
73919;SDS011;62266;53.348;-1.496;2023-08-06T12:59:20;1.35;;;0.45;;
73919;SDS011;62266;53.348;-1.496;2023-08-06T13:02:05;1.20;;;0.65;;
73919;SDS011;62266;53.348;-1.496;2023-08-06T13:04:50;1.00;;;0.65;;
73919;SDS011;62266;53.348;-1.496;2023-08-06T13:07:34;1.90;;;0.80;;
73919;SDS011;62266;53.348;-1.496;2023-08-06T13:10:21;1.10;;;0.50;;
73919;SDS011;62266;53.348;-1.496;2023-08-06T13:13:06;1.10;;;0.70;;
73919;SDS011;62266;53.348;-1.496;2023-08-06T13:15:51;1.17;;;0.90;;
73919;SDS011;62266;53.348;-1.496;2023-08-06T13:18:35;1.00;;;0.63;;
73919;SDS011;62266;53.348;-1.496;2023-08-06T13:21:20;1.38;;;0.70;;
73919;SDS011;62266;53.348;-1.496;2023-08-06T13:24:04;0.90;;;0.70;;
73919;SDS011;62266;53.348;-1.496;2023-08-06T13:26:49;1.92;;;0.98;;
73919;SDS011;62266;53.348;-1.496;2023-08-06T13:29:33;1.60;;;0.70;;
73919;SDS011;62266;53.348;-1.496;2023-08-06T13:32:18;2.22;;;0.95;;
73919;SDS011;62266;53.348;-1.496;2023-08-06T13:35:03;1.27;;;0.80;;
73919;SDS011;62266;53.348;-1.496;2023-08-06T13:37:48;1.87;;;1.23;;
73919;SDS011;62266;53.348;-1.496;2023-08-06T13:40:33;1.23;;;0.77;;
73919;SDS011;62266;53.348;-1.496;2023-08-06T13:43:18;1.20;;;0.90;;
73919;SDS011;62266;53.348;-1.496;2023-08-06T13:46:02;1.08;;;0.60;;
73919;SDS011;62266;53.348;-1.496;2023-08-06T13:48:47;1.27;;;0.80;;
73919;SDS011;62266;53.348;-1.496;2023-08-06T13:51:34;2.47;;;1.07;;
73919;SDS011;62266;53.348;-1.496;2023-08-06T13:54:19;2.63;;;1.25;;
73919;SDS011;62266;53.348;-1.496;2023-08-06T13:57:05;2.53;;;1.15;;
73919;SDS011;62266;53.348;-1.496;2023-08-06T13:59:49;2.40;;;1.30;;
73919;SDS011;62266;53.348;-1.496;2023-08-06T14:02:33;3.08;;;1.25;;
73919;SDS011;62266;53.348;-1.496;2023-08-06T14:05:17;2.03;;;1.03;;
73919;SDS011;62266;53.348;-1.496;2023-08-06T14:08:02;1.80;;;1.13;;
73919;SDS011;62266;53.348;-1.496;2023-08-06T14:10:46;2.00;;;1.00;;
73919;SDS011;62266;53.348;-1.496;2023-08-06T14:13:31;2.47;;;1.10;;
73919;SDS011;62266;53.348;-1.496;2023-08-06T14:16:16;3.17;;;1.20;;
73919;SDS011;62266;53.348;-1.496;2023-08-06T14:19:00;2.00;;;1.10;;
73919;SDS011;62266;53.348;-1.496;2023-08-06T14:21:45;1.75;;;1.10;;
73919;SDS011;62266;53.348;-1.496;2023-08-06T14:24:29;3.85;;;1.20;;
73919;SDS011;62266;53.348;-1.496;2023-08-06T14:27:14;1.73;;;1.02;;
73919;SDS011;62266;53.348;-1.496;2023-08-06T14:29:57;1.83;;;1.17;;
73919;SDS011;62266;53.348;-1.496;2023-08-06T14:32:42;2.73;;;1.20;;
73919;SDS011;62266;53.348;-1.496;2023-08-06T14:35:26;2.30;;;1.30;;
73919;SDS011;62266;53.348;-1.496;2023-08-06T14:38:11;1.73;;;1.05;;
73919;SDS011;62266;53.348;-1.496;2023-08-06T14:40:55;2.50;;;1.10;;
73919;SDS011;62266;53.348;-1.496;2023-08-06T14:43:40;2.10;;;0.95;;
73919;SDS011;62266;53.348;-1.496;2023-08-06T14:46:24;2.10;;;1.10;;
73919;SDS011;62266;53.348;-1.496;2023-08-06T14:49:09;1.85;;;0.98;;
73919;SDS011;62266;53.348;-1.496;2023-08-06T14:51:53;1.98;;;0.90;;
73919;SDS011;62266;53.348;-1.496;2023-08-06T14:54:38;2.95;;;1.30;;
73919;SDS011;62266;53.348;-1.496;2023-08-06T14:57:22;1.60;;;1.30;;
73919;SDS011;62266;53.348;-1.496;2023-08-06T15:00:12;2.33;;;1.13;;
73919;SDS011;62266;53.348;-1.496;2023-08-06T15:02:56;2.50;;;1.40;;
73919;SDS011;62266;53.348;-1.496;2023-08-06T15:05:46;3.13;;;1.30;;
73919;SDS011;62266;53.348;-1.496;2023-08-06T15:08:33;1.77;;;1.13;;
73919;SDS011;62266;53.348;-1.496;2023-08-06T15:11:17;2.22;;;1.80;;
73919;SDS011;62266;53.348;-1.496;2023-08-06T15:14:01;2.03;;;1.17;;
73919;SDS011;62266;53.348;-1.496;2023-08-06T15:16:48;2.45;;;1.27;;
73919;SDS011;62266;53.348;-1.496;2023-08-06T15:19:34;1.77;;;1.17;;
73919;SDS011;62266;53.348;-1.496;2023-08-06T15:22:18;1.90;;;1.30;;
73919;SDS011;62266;53.348;-1.496;2023-08-06T15:25:02;2.60;;;1.20;;
73919;SDS011;62266;53.348;-1.496;2023-08-06T15:27:47;2.43;;;1.60;;
73919;SDS011;62266;53.348;-1.496;2023-08-06T15:30:32;2.42;;;1.55;;
73919;SDS011;62266;53.348;-1.496;2023-08-06T15:33:17;1.85;;;1.13;;
73919;SDS011;62266;53.348;-1.496;2023-08-06T15:36:02;1.52;;;0.82;;
73919;SDS011;62266;53.348;-1.496;2023-08-06T15:38:46;2.35;;;1.15;;
73919;SDS011;62266;53.348;-1.496;2023-08-06T15:41:31;1.70;;;1.00;;
73919;SDS011;62266;53.348;-1.496;2023-08-06T15:44:15;1.73;;;1.10;;
73919;SDS011;62266;53.348;-1.496;2023-08-06T15:47:00;3.17;;;1.10;;
73919;SDS011;62266;53.348;-1.496;2023-08-06T15:49:44;2.08;;;1.27;;
73919;SDS011;62266;53.348;-1.496;2023-08-06T15:52:29;3.45;;;2.50;;
73919;SDS011;62266;53.348;-1.496;2023-08-06T15:55:13;2.77;;;1.40;;
73919;SDS011;62266;53.348;-1.496;2023-08-06T15:57:57;2.88;;;1.20;;
73919;SDS011;62266;53.348;-1.496;2023-08-06T16:00:41;2.58;;;1.08;;
73919;SDS011;62266;53.348;-1.496;2023-08-06T16:03:25;1.80;;;0.55;;
73919;SDS011;62266;53.348;-1.496;2023-08-06T16:06:09;0.90;;;0.60;;
73919;SDS011;62266;53.348;-1.496;2023-08-06T16:08:54;3.83;;;0.60;;
73919;SDS011;62266;53.348;-1.496;2023-08-06T16:11:39;0.88;;;0.40;;
73919;SDS011;62266;53.348;-1.496;2023-08-06T16:14:24;0.88;;;0.50;;
73919;SDS011;62266;53.348;-1.496;2023-08-06T16:17:08;0.98;;;0.60;;
73919;SDS011;62266;53.348;-1.496;2023-08-06T16:19:52;0.68;;;0.40;;
73919;SDS011;62266;53.348;-1.496;2023-08-06T16:22:37;0.77;;;0.50;;
73919;SDS011;62266;53.348;-1.496;2023-08-06T16:25:21;0.73;;;0.40;;
73919;SDS011;62266;53.348;-1.496;2023-08-06T16:28:05;0.90;;;0.47;;